sensor_id;sensor_type;location;lat;lon;timestamp;temperature;humidity
58554;DHT22;48119;53.218;6.576;2022-08-19T00:00:07;20.50;92.20
58554;DHT22;48119;53.218;6.576;2022-08-19T00:02:34;20.50;92.20
58554;DHT22;48119;53.218;6.576;2022-08-19T00:05:01;20.50;92.30
58554;DHT22;48119;53.218;6.576;2022-08-19T00:07:29;20.50;92.30
58554;DHT22;48119;53.218;6.576;2022-08-19T00:09:54;20.50;92.30
58554;DHT22;48119;53.218;6.576;2022-08-19T00:12:21;20.40;92.40
58554;DHT22;48119;53.218;6.576;2022-08-19T00:14:47;20.50;92.50
58554;DHT22;48119;53.218;6.576;2022-08-19T00:17:13;20.50;92.50
58554;DHT22;48119;53.218;6.576;2022-08-19T00:19:39;20.50;92.50
58554;DHT22;48119;53.218;6.576;2022-08-19T00:22:06;20.50;92.60
58554;DHT22;48119;53.218;6.576;2022-08-19T00:24:34;20.40;92.50
58554;DHT22;48119;53.218;6.576;2022-08-19T00:27:01;20.40;92.50
58554;DHT22;48119;53.218;6.576;2022-08-19T00:29:27;20.40;92.50
58554;DHT22;48119;53.218;6.576;2022-08-19T00:31:54;20.40;92.60
58554;DHT22;48119;53.218;6.576;2022-08-19T00:34:22;20.40;92.60
58554;DHT22;48119;53.218;6.576;2022-08-19T00:36:48;20.40;92.70
58554;DHT22;48119;53.218;6.576;2022-08-19T00:39:15;20.40;92.70
58554;DHT22;48119;53.218;6.576;2022-08-19T00:41:43;20.30;92.70
58554;DHT22;48119;53.218;6.576;2022-08-19T00:44:12;20.30;92.80
58554;DHT22;48119;53.218;6.576;2022-08-19T00:46:41;20.30;92.80
58554;DHT22;48119;53.218;6.576;2022-08-19T00:49:35;20.30;92.80
58554;DHT22;48119;53.218;6.576;2022-08-19T00:52:09;20.30;92.90
58554;DHT22;48119;53.218;6.576;2022-08-19T00:54:38;20.30;92.90
58554;DHT22;48119;53.218;6.576;2022-08-19T00:57:07;20.20;92.90
58554;DHT22;48119;53.218;6.576;2022-08-19T00:59:36;20.20;93.00
58554;DHT22;48119;53.218;6.576;2022-08-19T01:02:04;20.20;93.40
58554;DHT22;48119;53.218;6.576;2022-08-19T01:04:30;20.20;93.00
58554;DHT22;48119;53.218;6.576;2022-08-19T01:06:56;20.20;93.00
58554;DHT22;48119;53.218;6.576;2022-08-19T01:09:23;20.20;93.00
58554;DHT22;48119;53.218;6.576;2022-08-19T01:11:50;20.20;93.10
58554;DHT22;48119;53.218;6.576;2022-08-19T01:14:17;20.20;93.10
58554;DHT22;48119;53.218;6.576;2022-08-19T01:16:44;20.20;93.10
58554;DHT22;48119;53.218;6.576;2022-08-19T01:19:33;20.20;93.20
58554;DHT22;48119;53.218;6.576;2022-08-19T01:22:14;20.20;93.20
58554;DHT22;48119;53.218;6.576;2022-08-19T01:24:41;20.20;93.20
58554;DHT22;48119;53.218;6.576;2022-08-19T01:27:07;20.10;93.20
58554;DHT22;48119;53.218;6.576;2022-08-19T01:29:38;20.10;93.20
58554;DHT22;48119;53.218;6.576;2022-08-19T01:32:04;20.10;93.20
58554;DHT22;48119;53.218;6.576;2022-08-19T01:34:30;20.10;93.20
58554;DHT22;48119;53.218;6.576;2022-08-19T01:36:55;20.10;93.20
58554;DHT22;48119;53.218;6.576;2022-08-19T01:39:24;20.10;93.20
58554;DHT22;48119;53.218;6.576;2022-08-19T01:41:50;20.10;93.20
58554;DHT22;48119;53.218;6.576;2022-08-19T01:44:17;20.10;93.20
58554;DHT22;48119;53.218;6.576;2022-08-19T01:46:47;20.10;93.20
58554;DHT22;48119;53.218;6.576;2022-08-19T01:49:13;20.10;93.20
58554;DHT22;48119;53.218;6.576;2022-08-19T01:51:39;20.10;93.20
58554;DHT22;48119;53.218;6.576;2022-08-19T01:54:05;20.10;93.20
58554;DHT22;48119;53.218;6.576;2022-08-19T01:56:31;20.10;93.30
58554;DHT22;48119;53.218;6.576;2022-08-19T01:59:03;20.10;93.30
58554;DHT22;48119;53.218;6.576;2022-08-19T02:01:29;20.10;93.50
58554;DHT22;48119;53.218;6.576;2022-08-19T02:03:59;20.10;93.20
58554;DHT22;48119;53.218;6.576;2022-08-19T02:06:26;20.00;93.10
58554;DHT22;48119;53.218;6.576;2022-08-19T02:08:52;20.00;93.10
58554;DHT22;48119;53.218;6.576;2022-08-19T02:11:24;20.00;93.10
58554;DHT22;48119;53.218;6.576;2022-08-19T02:13:52;20.00;93.20
58554;DHT22;48119;53.218;6.576;2022-08-19T02:16:19;20.00;93.30
58554;DHT22;48119;53.218;6.576;2022-08-19T02:18:46;20.00;93.40
58554;DHT22;48119;53.218;6.576;2022-08-19T02:21:14;20.00;93.40
58554;DHT22;48119;53.218;6.576;2022-08-19T02:23:41;20.00;93.40
58554;DHT22;48119;53.218;6.576;2022-08-19T02:26:07;20.00;93.50
58554;DHT22;48119;53.218;6.576;2022-08-19T02:28:33;20.00;93.50
58554;DHT22;48119;53.218;6.576;2022-08-19T02:30:59;20.00;93.50
58554;DHT22;48119;53.218;6.576;2022-08-19T02:33:26;20.00;93.50
58554;DHT22;48119;53.218;6.576;2022-08-19T02:35:52;19.90;93.50
58554;DHT22;48119;53.218;6.576;2022-08-19T02:38:18;19.90;93.50
58554;DHT22;48119;53.218;6.576;2022-08-19T02:40:59;19.90;93.80
58554;DHT22;48119;53.218;6.576;2022-08-19T02:43:28;19.90;93.50
58554;DHT22;48119;53.218;6.576;2022-08-19T02:45:55;19.90;93.50
58554;DHT22;48119;53.218;6.576;2022-08-19T02:48:23;19.80;93.60
58554;DHT22;48119;53.218;6.576;2022-08-19T02:50:51;19.80;93.60
58554;DHT22;48119;53.218;6.576;2022-08-19T02:53:24;19.80;93.60
58554;DHT22;48119;53.218;6.576;2022-08-19T02:55:51;19.80;93.60
58554;DHT22;48119;53.218;6.576;2022-08-19T02:58:18;19.80;93.60
58554;DHT22;48119;53.218;6.576;2022-08-19T03:00:51;19.80;93.60
58554;DHT22;48119;53.218;6.576;2022-08-19T03:03:18;19.80;93.60
58554;DHT22;48119;53.218;6.576;2022-08-19T03:05:45;19.80;93.60
58554;DHT22;48119;53.218;6.576;2022-08-19T03:08:12;19.80;93.60
58554;DHT22;48119;53.218;6.576;2022-08-19T03:10:43;19.80;93.60
58554;DHT22;48119;53.218;6.576;2022-08-19T03:13:15;19.80;93.60
58554;DHT22;48119;53.218;6.576;2022-08-19T03:15:42;19.70;93.60
58554;DHT22;48119;53.218;6.576;2022-08-19T03:18:09;19.70;93.70
58554;DHT22;48119;53.218;6.576;2022-08-19T03:20:41;19.80;93.70
58554;DHT22;48119;53.218;6.576;2022-08-19T03:23:07;19.70;93.70
58554;DHT22;48119;53.218;6.576;2022-08-19T03:25:37;19.70;93.80
58554;DHT22;48119;53.218;6.576;2022-08-19T03:28:04;19.70;93.80
58554;DHT22;48119;53.218;6.576;2022-08-19T03:30:29;19.70;93.80
58554;DHT22;48119;53.218;6.576;2022-08-19T03:32:55;19.70;93.80
58554;DHT22;48119;53.218;6.576;2022-08-19T03:35:20;19.70;93.90
58554;DHT22;48119;53.218;6.576;2022-08-19T03:37:46;19.70;93.90
58554;DHT22;48119;53.218;6.576;2022-08-19T03:40:12;19.70;94.20
58554;DHT22;48119;53.218;6.576;2022-08-19T03:42:38;19.70;94.00
58554;DHT22;48119;53.218;6.576;2022-08-19T03:45:06;19.70;94.00
58554;DHT22;48119;53.218;6.576;2022-08-19T03:47:32;19.70;94.00
58554;DHT22;48119;53.218;6.576;2022-08-19T03:49:58;19.70;94.00
58554;DHT22;48119;53.218;6.576;2022-08-19T03:52:24;19.70;94.00
58554;DHT22;48119;53.218;6.576;2022-08-19T03:54:49;19.70;94.00
58554;DHT22;48119;53.218;6.576;2022-08-19T03:57:15;19.70;94.10
58554;DHT22;48119;53.218;6.576;2022-08-19T03:59:41;19.70;94.10
58554;DHT22;48119;53.218;6.576;2022-08-19T04:02:10;19.70;94.20
58554;DHT22;48119;53.218;6.576;2022-08-19T04:04:38;19.70;94.20
58554;DHT22;48119;53.218;6.576;2022-08-19T04:07:04;19.70;94.20
58554;DHT22;48119;53.218;6.576;2022-08-19T04:09:30;19.70;94.20
58554;DHT22;48119;53.218;6.576;2022-08-19T04:11:57;19.70;94.20
58554;DHT22;48119;53.218;6.576;2022-08-19T04:14:28;19.70;94.30
58554;DHT22;48119;53.218;6.576;2022-08-19T04:16:58;19.70;94.30
58554;DHT22;48119;53.218;6.576;2022-08-19T04:19:24;19.70;94.40
58554;DHT22;48119;53.218;6.576;2022-08-19T04:21:53;19.70;94.40
58554;DHT22;48119;53.218;6.576;2022-08-19T04:24:19;19.60;94.30
58554;DHT22;48119;53.218;6.576;2022-08-19T04:26:46;19.70;94.30
58554;DHT22;48119;53.218;6.576;2022-08-19T04:29:22;19.60;94.30
58554;DHT22;48119;53.218;6.576;2022-08-19T04:31:51;19.60;94.30
58554;DHT22;48119;53.218;6.576;2022-08-19T04:34:20;19.60;94.30
58554;DHT22;48119;53.218;6.576;2022-08-19T04:36:50;19.60;94.30
58554;DHT22;48119;53.218;6.576;2022-08-19T04:39:21;19.60;94.30
58554;DHT22;48119;53.218;6.576;2022-08-19T04:41:48;19.60;94.30
58554;DHT22;48119;53.218;6.576;2022-08-19T04:44:35;19.60;94.30
58554;DHT22;48119;53.218;6.576;2022-08-19T04:47:01;19.60;94.30
58554;DHT22;48119;53.218;6.576;2022-08-19T04:49:30;19.60;94.30
58554;DHT22;48119;53.218;6.576;2022-08-19T04:51:56;19.60;94.30
58554;DHT22;48119;53.218;6.576;2022-08-19T04:54:24;19.60;94.30
58554;DHT22;48119;53.218;6.576;2022-08-19T04:56:51;19.60;94.30
58554;DHT22;48119;53.218;6.576;2022-08-19T04:59:19;19.60;94.30
58554;DHT22;48119;53.218;6.576;2022-08-19T05:01:45;19.60;94.40
58554;DHT22;48119;53.218;6.576;2022-08-19T05:04:17;19.60;94.40
58554;DHT22;48119;53.218;6.576;2022-08-19T05:06:44;19.50;94.40
58554;DHT22;48119;53.218;6.576;2022-08-19T05:09:10;19.60;94.50
58554;DHT22;48119;53.218;6.576;2022-08-19T05:11:37;19.50;94.50
58554;DHT22;48119;53.218;6.576;2022-08-19T05:14:05;19.50;94.60
58554;DHT22;48119;53.218;6.576;2022-08-19T05:16:31;19.50;94.70
58554;DHT22;48119;53.218;6.576;2022-08-19T05:18:56;19.50;94.70
58554;DHT22;48119;53.218;6.576;2022-08-19T05:21:42;19.50;94.70
58554;DHT22;48119;53.218;6.576;2022-08-19T05:24:27;19.60;94.80
58554;DHT22;48119;53.218;6.576;2022-08-19T05:26:53;19.60;94.90
58554;DHT22;48119;53.218;6.576;2022-08-19T05:29:23;19.60;94.90
58554;DHT22;48119;53.218;6.576;2022-08-19T05:31:50;19.60;94.90
58554;DHT22;48119;53.218;6.576;2022-08-19T05:34:17;19.70;94.90
58554;DHT22;48119;53.218;6.576;2022-08-19T05:36:48;19.60;94.80
58554;DHT22;48119;53.218;6.576;2022-08-19T05:39:19;19.70;94.90
58554;DHT22;48119;53.218;6.576;2022-08-19T05:41:51;19.70;94.90
58554;DHT22;48119;53.218;6.576;2022-08-19T05:44:18;19.60;94.90
58554;DHT22;48119;53.218;6.576;2022-08-19T05:46:46;19.70;95.00
58554;DHT22;48119;53.218;6.576;2022-08-19T05:49:19;19.70;95.00
58554;DHT22;48119;53.218;6.576;2022-08-19T05:51:47;19.70;95.00
58554;DHT22;48119;53.218;6.576;2022-08-19T05:54:13;19.70;95.00
58554;DHT22;48119;53.218;6.576;2022-08-19T05:56:40;19.80;95.10
58554;DHT22;48119;53.218;6.576;2022-08-19T05:59:08;19.80;95.10
58554;DHT22;48119;53.218;6.576;2022-08-19T06:01:37;19.80;95.10
58554;DHT22;48119;53.218;6.576;2022-08-19T06:04:03;19.80;95.10
58554;DHT22;48119;53.218;6.576;2022-08-19T06:06:30;19.80;95.10
58554;DHT22;48119;53.218;6.576;2022-08-19T06:08:56;19.80;95.20
58554;DHT22;48119;53.218;6.576;2022-08-19T06:11:28;19.90;95.20
58554;DHT22;48119;53.218;6.576;2022-08-19T06:14:01;19.90;95.10
58554;DHT22;48119;53.218;6.576;2022-08-19T06:16:28;19.90;95.10
58554;DHT22;48119;53.218;6.576;2022-08-19T06:18:55;19.90;95.10
58554;DHT22;48119;53.218;6.576;2022-08-19T06:21:24;20.00;95.10
58554;DHT22;48119;53.218;6.576;2022-08-19T06:23:51;20.00;95.10
58554;DHT22;48119;53.218;6.576;2022-08-19T06:26:19;20.00;95.10
58554;DHT22;48119;53.218;6.576;2022-08-19T06:28:46;20.10;95.10
58554;DHT22;48119;53.218;6.576;2022-08-19T06:31:17;20.10;95.10
58554;DHT22;48119;53.218;6.576;2022-08-19T06:33:44;20.10;95.00
58554;DHT22;48119;53.218;6.576;2022-08-19T06:36:22;20.10;95.00
58554;DHT22;48119;53.218;6.576;2022-08-19T06:38:53;20.10;95.00
58554;DHT22;48119;53.218;6.576;2022-08-19T06:41:18;20.20;95.00
58554;DHT22;48119;53.218;6.576;2022-08-19T06:43:44;20.20;95.10
58554;DHT22;48119;53.218;6.576;2022-08-19T06:46:12;20.20;95.10
58554;DHT22;48119;53.218;6.576;2022-08-19T06:48:39;20.30;95.10
58554;DHT22;48119;53.218;6.576;2022-08-19T06:51:05;20.30;95.10
58554;DHT22;48119;53.218;6.576;2022-08-19T06:53:32;20.30;95.10
58554;DHT22;48119;53.218;6.576;2022-08-19T06:55:58;20.30;95.10
58554;DHT22;48119;53.218;6.576;2022-08-19T06:58:26;20.30;95.10
58554;DHT22;48119;53.218;6.576;2022-08-19T07:00:51;20.40;95.10
58554;DHT22;48119;53.218;6.576;2022-08-19T07:03:17;20.40;95.50
58554;DHT22;48119;53.218;6.576;2022-08-19T07:05:43;20.40;95.10
58554;DHT22;48119;53.218;6.576;2022-08-19T07:08:09;20.40;95.20
58554;DHT22;48119;53.218;6.576;2022-08-19T07:10:35;20.50;95.30
58554;DHT22;48119;53.218;6.576;2022-08-19T07:13:02;20.50;95.30
58554;DHT22;48119;53.218;6.576;2022-08-19T07:15:29;20.50;95.40
58554;DHT22;48119;53.218;6.576;2022-08-19T07:17:56;20.50;95.40
58554;DHT22;48119;53.218;6.576;2022-08-19T07:20:22;20.60;95.50
58554;DHT22;48119;53.218;6.576;2022-08-19T07:22:47;20.60;95.50
58554;DHT22;48119;53.218;6.576;2022-08-19T07:25:13;20.60;95.50
58554;DHT22;48119;53.218;6.576;2022-08-19T07:27:39;20.70;95.50
58554;DHT22;48119;53.218;6.576;2022-08-19T07:30:06;20.70;95.50
58554;DHT22;48119;53.218;6.576;2022-08-19T07:32:32;20.70;95.50
58554;DHT22;48119;53.218;6.576;2022-08-19T07:34:57;20.80;95.50
58554;DHT22;48119;53.218;6.576;2022-08-19T07:37:25;20.80;95.50
58554;DHT22;48119;53.218;6.576;2022-08-19T07:39:54;20.80;95.50
58554;DHT22;48119;53.218;6.576;2022-08-19T07:42:19;20.80;95.50
58554;DHT22;48119;53.218;6.576;2022-08-19T07:44:46;20.80;95.50
58554;DHT22;48119;53.218;6.576;2022-08-19T07:47:12;20.90;95.40
58554;DHT22;48119;53.218;6.576;2022-08-19T07:49:40;20.90;95.40
58554;DHT22;48119;53.218;6.576;2022-08-19T07:52:08;21.00;95.40
58554;DHT22;48119;53.218;6.576;2022-08-19T07:54:36;21.00;95.30
58554;DHT22;48119;53.218;6.576;2022-08-19T07:57:02;21.00;95.20
58554;DHT22;48119;53.218;6.576;2022-08-19T07:59:29;21.10;95.20
58554;DHT22;48119;53.218;6.576;2022-08-19T08:01:56;21.10;95.10
58554;DHT22;48119;53.218;6.576;2022-08-19T08:04:22;21.10;95.00
58554;DHT22;48119;53.218;6.576;2022-08-19T08:07:07;21.20;94.90
58554;DHT22;48119;53.218;6.576;2022-08-19T08:09:52;21.20;94.90
58554;DHT22;48119;53.218;6.576;2022-08-19T08:12:22;21.20;94.90
58554;DHT22;48119;53.218;6.576;2022-08-19T08:14:53;21.30;94.90
58554;DHT22;48119;53.218;6.576;2022-08-19T08:17:22;21.30;94.70
58554;DHT22;48119;53.218;6.576;2022-08-19T08:19:49;21.30;94.50
58554;DHT22;48119;53.218;6.576;2022-08-19T08:22:19;21.40;94.40
58554;DHT22;48119;53.218;6.576;2022-08-19T08:25:06;21.40;94.30
58554;DHT22;48119;53.218;6.576;2022-08-19T08:27:38;21.50;94.30
58554;DHT22;48119;53.218;6.576;2022-08-19T08:30:07;21.50;94.20
58554;DHT22;48119;53.218;6.576;2022-08-19T08:32:39;21.50;94.20
58554;DHT22;48119;53.218;6.576;2022-08-19T08:35:08;21.60;94.20
58554;DHT22;48119;53.218;6.576;2022-08-19T08:37:34;21.60;94.10
58554;DHT22;48119;53.218;6.576;2022-08-19T08:45:49;21.70;93.50
58554;DHT22;48119;53.218;6.576;2022-08-19T08:48:24;21.80;93.40
58554;DHT22;48119;53.218;6.576;2022-08-19T08:50:57;21.80;93.50
58554;DHT22;48119;53.218;6.576;2022-08-19T08:53:25;21.80;93.50
58554;DHT22;48119;53.218;6.576;2022-08-19T08:55:51;21.90;93.50
58554;DHT22;48119;53.218;6.576;2022-08-19T09:01:10;22.00;93.40
58554;DHT22;48119;53.218;6.576;2022-08-19T09:03:38;22.00;93.70
58554;DHT22;48119;53.218;6.576;2022-08-19T09:14:52;22.10;93.40
58554;DHT22;48119;53.218;6.576;2022-08-19T09:17:21;22.20;93.30
58554;DHT22;48119;53.218;6.576;2022-08-19T09:22:34;22.20;93.20
58554;DHT22;48119;53.218;6.576;2022-08-19T09:25:01;22.20;93.20
58554;DHT22;48119;53.218;6.576;2022-08-19T09:27:28;22.20;93.10
58554;DHT22;48119;53.218;6.576;2022-08-19T09:29:55;22.30;93.00
58554;DHT22;48119;53.218;6.576;2022-08-19T09:32:22;22.30;93.00
58554;DHT22;48119;53.218;6.576;2022-08-19T09:34:48;22.40;92.90
58554;DHT22;48119;53.218;6.576;2022-08-19T09:37:14;22.40;92.80
58554;DHT22;48119;53.218;6.576;2022-08-19T09:39:40;22.50;92.50
58554;DHT22;48119;53.218;6.576;2022-08-19T09:42:07;22.50;92.30
58554;DHT22;48119;53.218;6.576;2022-08-19T09:44:41;22.50;92.30
58554;DHT22;48119;53.218;6.576;2022-08-19T09:47:08;22.60;92.50
58554;DHT22;48119;53.218;6.576;2022-08-19T09:49:34;22.70;92.50
58554;DHT22;48119;53.218;6.576;2022-08-19T09:52:00;22.70;92.40
58554;DHT22;48119;53.218;6.576;2022-08-19T09:54:26;22.70;92.40
58554;DHT22;48119;53.218;6.576;2022-08-19T09:56:53;22.80;92.30
58554;DHT22;48119;53.218;6.576;2022-08-19T09:59:20;22.80;92.00
58554;DHT22;48119;53.218;6.576;2022-08-19T10:01:46;22.80;91.90
58554;DHT22;48119;53.218;6.576;2022-08-19T10:04:12;22.90;91.90
58554;DHT22;48119;53.218;6.576;2022-08-19T10:06:39;22.90;91.90
58554;DHT22;48119;53.218;6.576;2022-08-19T10:09:07;23.00;91.80
58554;DHT22;48119;53.218;6.576;2022-08-19T10:11:34;23.00;91.80
58554;DHT22;48119;53.218;6.576;2022-08-19T10:14:01;23.10;91.50
58554;DHT22;48119;53.218;6.576;2022-08-19T10:16:27;23.10;91.60
58554;DHT22;48119;53.218;6.576;2022-08-19T10:18:54;23.20;91.60
58554;DHT22;48119;53.218;6.576;2022-08-19T10:21:26;23.20;91.50
58554;DHT22;48119;53.218;6.576;2022-08-19T10:23:55;23.20;91.40
58554;DHT22;48119;53.218;6.576;2022-08-19T10:26:27;23.20;91.40
58554;DHT22;48119;53.218;6.576;2022-08-19T10:28:53;23.30;91.40
58554;DHT22;48119;53.218;6.576;2022-08-19T10:31:22;23.30;91.30
58554;DHT22;48119;53.218;6.576;2022-08-19T10:33:49;23.40;91.30
58554;DHT22;48119;53.218;6.576;2022-08-19T10:36:19;23.40;91.10
58554;DHT22;48119;53.218;6.576;2022-08-19T10:38:47;23.40;90.90
58554;DHT22;48119;53.218;6.576;2022-08-19T10:41:22;23.40;90.80
58554;DHT22;48119;53.218;6.576;2022-08-19T10:43:51;23.40;90.60
58554;DHT22;48119;53.218;6.576;2022-08-19T10:46:21;23.50;90.60
58554;DHT22;48119;53.218;6.576;2022-08-19T10:48:47;23.50;91.00
58554;DHT22;48119;53.218;6.576;2022-08-19T10:51:13;23.60;90.80
58554;DHT22;48119;53.218;6.576;2022-08-19T10:53:58;23.50;90.80
58554;DHT22;48119;53.218;6.576;2022-08-19T10:56:26;23.60;90.80
58554;DHT22;48119;53.218;6.576;2022-08-19T10:59:11;23.60;90.80
58554;DHT22;48119;53.218;6.576;2022-08-19T11:01:40;23.60;90.70
58554;DHT22;48119;53.218;6.576;2022-08-19T11:04:06;23.70;90.60
58554;DHT22;48119;53.218;6.576;2022-08-19T11:06:36;23.70;90.60
58554;DHT22;48119;53.218;6.576;2022-08-19T11:09:02;23.70;90.50
58554;DHT22;48119;53.218;6.576;2022-08-19T11:11:28;23.80;90.40
58554;DHT22;48119;53.218;6.576;2022-08-19T11:13:54;23.80;90.20
58554;DHT22;48119;53.218;6.576;2022-08-19T11:16:23;23.80;90.10
58554;DHT22;48119;53.218;6.576;2022-08-19T11:18:53;23.90;90.20
58554;DHT22;48119;53.218;6.576;2022-08-19T11:21:40;23.90;90.30
58554;DHT22;48119;53.218;6.576;2022-08-19T11:24:12;24.00;90.20
58554;DHT22;48119;53.218;6.576;2022-08-19T11:26:40;24.00;90.10
58554;DHT22;48119;53.218;6.576;2022-08-19T11:29:08;24.00;89.80
58554;DHT22;48119;53.218;6.576;2022-08-19T11:31:41;24.10;89.80
58554;DHT22;48119;53.218;6.576;2022-08-19T11:34:10;24.20;89.70
58554;DHT22;48119;53.218;6.576;2022-08-19T11:36:39;24.20;89.40
58554;DHT22;48119;53.218;6.576;2022-08-19T11:39:10;24.30;88.90
58554;DHT22;48119;53.218;6.576;2022-08-19T11:41:37;24.30;88.50
58554;DHT22;48119;53.218;6.576;2022-08-19T11:44:03;24.30;88.70
58554;DHT22;48119;53.218;6.576;2022-08-19T11:46:30;24.30;88.90
58554;DHT22;48119;53.218;6.576;2022-08-19T11:48:57;24.30;89.40
58554;DHT22;48119;53.218;6.576;2022-08-19T11:51:25;24.30;89.30
58554;DHT22;48119;53.218;6.576;2022-08-19T11:53:52;24.30;88.60
58554;DHT22;48119;53.218;6.576;2022-08-19T11:56:19;24.30;88.40
58554;DHT22;48119;53.218;6.576;2022-08-19T11:58:45;24.30;88.40
58554;DHT22;48119;53.218;6.576;2022-08-19T12:01:12;24.30;88.10
58554;DHT22;48119;53.218;6.576;2022-08-19T12:03:41;24.20;87.90
58554;DHT22;48119;53.218;6.576;2022-08-19T12:06:13;24.30;88.10
58554;DHT22;48119;53.218;6.576;2022-08-19T12:08:44;24.20;88.30
58554;DHT22;48119;53.218;6.576;2022-08-19T12:11:11;24.20;88.60
58554;DHT22;48119;53.218;6.576;2022-08-19T12:13:38;24.20;88.90
58554;DHT22;48119;53.218;6.576;2022-08-19T12:16:15;24.20;89.00
58554;DHT22;48119;53.218;6.576;2022-08-19T12:18:43;24.10;89.00
58554;DHT22;48119;53.218;6.576;2022-08-19T12:21:14;24.10;89.10
58554;DHT22;48119;53.218;6.576;2022-08-19T12:23:41;24.10;88.60
58554;DHT22;48119;53.218;6.576;2022-08-19T12:26:09;24.10;88.20
58554;DHT22;48119;53.218;6.576;2022-08-19T12:28:35;24.10;88.10
58554;DHT22;48119;53.218;6.576;2022-08-19T12:31:01;24.10;88.10
58554;DHT22;48119;53.218;6.576;2022-08-19T12:33:27;24.10;88.20
58554;DHT22;48119;53.218;6.576;2022-08-19T12:35:54;24.10;88.30
58554;DHT22;48119;53.218;6.576;2022-08-19T12:38:20;24.10;88.10
58554;DHT22;48119;53.218;6.576;2022-08-19T12:40:49;24.10;88.80
58554;DHT22;48119;53.218;6.576;2022-08-19T12:43:17;24.10;88.10
58554;DHT22;48119;53.218;6.576;2022-08-19T12:45:43;24.10;88.10
58554;DHT22;48119;53.218;6.576;2022-08-19T12:48:10;24.10;88.10
58554;DHT22;48119;53.218;6.576;2022-08-19T12:50:39;24.10;88.30
58554;DHT22;48119;53.218;6.576;2022-08-19T12:53:05;24.20;88.40
58554;DHT22;48119;53.218;6.576;2022-08-19T12:55:31;24.20;88.60
58554;DHT22;48119;53.218;6.576;2022-08-19T12:57:57;24.20;88.30
58554;DHT22;48119;53.218;6.576;2022-08-19T13:00:23;24.20;87.80
58554;DHT22;48119;53.218;6.576;2022-08-19T13:02:51;24.20;87.40
58554;DHT22;48119;53.218;6.576;2022-08-19T13:05:23;24.20;87.00
58554;DHT22;48119;53.218;6.576;2022-08-19T13:07:52;24.20;87.10
58554;DHT22;48119;53.218;6.576;2022-08-19T13:10:21;24.20;87.60
58554;DHT22;48119;53.218;6.576;2022-08-19T13:12:49;24.20;87.60
58554;DHT22;48119;53.218;6.576;2022-08-19T13:15:16;24.20;87.60
58554;DHT22;48119;53.218;6.576;2022-08-19T13:17:46;24.30;88.10
58554;DHT22;48119;53.218;6.576;2022-08-19T13:20:13;24.20;88.50
58554;DHT22;48119;53.218;6.576;2022-08-19T13:22:39;24.20;88.60
58554;DHT22;48119;53.218;6.576;2022-08-19T13:25:06;24.20;88.60
58554;DHT22;48119;53.218;6.576;2022-08-19T13:27:33;24.20;88.80
58554;DHT22;48119;53.218;6.576;2022-08-19T13:29:59;24.20;89.20
58554;DHT22;48119;53.218;6.576;2022-08-19T13:32:44;24.30;89.60
58554;DHT22;48119;53.218;6.576;2022-08-19T13:35:28;24.30;90.10
58554;DHT22;48119;53.218;6.576;2022-08-19T13:37:53;24.30;90.40
58554;DHT22;48119;53.218;6.576;2022-08-19T13:40:22;24.30;90.60
58554;DHT22;48119;53.218;6.576;2022-08-19T13:42:51;24.30;90.80
58554;DHT22;48119;53.218;6.576;2022-08-19T13:45:23;24.30;90.80
58554;DHT22;48119;53.218;6.576;2022-08-19T13:47:51;24.30;90.50
58554;DHT22;48119;53.218;6.576;2022-08-19T13:50:21;24.30;90.40
58554;DHT22;48119;53.218;6.576;2022-08-19T13:52:47;24.20;90.30
58554;DHT22;48119;53.218;6.576;2022-08-19T13:55:14;24.20;90.30
58554;DHT22;48119;53.218;6.576;2022-08-19T13:57:42;24.20;90.30
58554;DHT22;48119;53.218;6.576;2022-08-19T14:00:16;24.20;90.40
58554;DHT22;48119;53.218;6.576;2022-08-19T14:02:45;24.20;90.40
58554;DHT22;48119;53.218;6.576;2022-08-19T14:05:12;24.20;90.50
58554;DHT22;48119;53.218;6.576;2022-08-19T14:07:38;24.10;90.50
58554;DHT22;48119;53.218;6.576;2022-08-19T14:10:06;24.10;90.50
58554;DHT22;48119;53.218;6.576;2022-08-19T14:12:33;24.10;90.50
58554;DHT22;48119;53.218;6.576;2022-08-19T14:14:59;24.10;90.40
58554;DHT22;48119;53.218;6.576;2022-08-19T14:17:25;24.10;90.20
58554;DHT22;48119;53.218;6.576;2022-08-19T14:19:59;24.10;90.10
58554;DHT22;48119;53.218;6.576;2022-08-19T14:22:32;24.00;89.70
58554;DHT22;48119;53.218;6.576;2022-08-19T14:24:58;24.00;89.80
58554;DHT22;48119;53.218;6.576;2022-08-19T14:27:24;24.00;90.10
58554;DHT22;48119;53.218;6.576;2022-08-19T14:29:52;24.00;90.30
58554;DHT22;48119;53.218;6.576;2022-08-19T14:32:18;24.00;90.40
58554;DHT22;48119;53.218;6.576;2022-08-19T14:34:44;24.00;90.50
58554;DHT22;48119;53.218;6.576;2022-08-19T14:37:13;24.00;91.00
58554;DHT22;48119;53.218;6.576;2022-08-19T14:39:42;24.00;90.70
58554;DHT22;48119;53.218;6.576;2022-08-19T14:42:09;24.00;90.80
58554;DHT22;48119;53.218;6.576;2022-08-19T14:44:35;24.00;90.90
58554;DHT22;48119;53.218;6.576;2022-08-19T14:47:01;24.00;91.00
58554;DHT22;48119;53.218;6.576;2022-08-19T14:49:27;24.00;91.00
58554;DHT22;48119;53.218;6.576;2022-08-19T14:51:53;24.00;91.00
58554;DHT22;48119;53.218;6.576;2022-08-19T14:54:19;24.00;91.10
58554;DHT22;48119;53.218;6.576;2022-08-19T14:56:44;24.00;91.40
58554;DHT22;48119;53.218;6.576;2022-08-19T14:59:10;24.00;91.10
58554;DHT22;48119;53.218;6.576;2022-08-19T15:01:36;24.00;91.10
58554;DHT22;48119;53.218;6.576;2022-08-19T15:04:02;24.00;91.30
58554;DHT22;48119;53.218;6.576;2022-08-19T15:06:28;24.00;91.50
58554;DHT22;48119;53.218;6.576;2022-08-19T15:08:54;24.00;91.60
58554;DHT22;48119;53.218;6.576;2022-08-19T15:11:23;24.10;91.60
58554;DHT22;48119;53.218;6.576;2022-08-19T15:13:49;24.00;91.50
58554;DHT22;48119;53.218;6.576;2022-08-19T15:16:16;24.10;91.50
58554;DHT22;48119;53.218;6.576;2022-08-19T15:18:43;24.10;91.50
58554;DHT22;48119;53.218;6.576;2022-08-19T15:21:12;24.10;91.50
58554;DHT22;48119;53.218;6.576;2022-08-19T15:23:39;24.10;91.40
58554;DHT22;48119;53.218;6.576;2022-08-19T15:26:06;24.10;91.30
58554;DHT22;48119;53.218;6.576;2022-08-19T15:28:34;24.10;91.30
58554;DHT22;48119;53.218;6.576;2022-08-19T15:31:00;24.10;91.20
58554;DHT22;48119;53.218;6.576;2022-08-19T15:33:26;24.10;91.50
58554;DHT22;48119;53.218;6.576;2022-08-19T15:35:52;24.10;91.00
58554;DHT22;48119;53.218;6.576;2022-08-19T15:38:19;24.10;91.00
58554;DHT22;48119;53.218;6.576;2022-08-19T15:40:48;24.10;90.90
58554;DHT22;48119;53.218;6.576;2022-08-19T15:43:15;24.10;90.90
58554;DHT22;48119;53.218;6.576;2022-08-19T15:45:43;24.10;90.90
58554;DHT22;48119;53.218;6.576;2022-08-19T15:48:08;24.10;91.00
58554;DHT22;48119;53.218;6.576;2022-08-19T15:50:34;24.10;91.00
58554;DHT22;48119;53.218;6.576;2022-08-19T15:53:03;24.10;91.00
58554;DHT22;48119;53.218;6.576;2022-08-19T15:55:32;24.20;91.10